createdAt,value
2023-02-28T04:45:49.888Z,612.78
2023-02-28T04:48:16.549Z,614.53
2023-02-28T04:50:43.175Z,615.97
2023-02-28T04:53:09.783Z,621.22
2023-02-28T04:55:36.412Z,617.42
2023-02-28T04:58:03.185Z,618.70
2023-02-28T05:00:29.841Z,626.08
2023-02-28T05:02:56.567Z,620.90
2023-02-28T05:05:23.268Z,618.75
2023-02-28T05:07:50.239Z,617.65
2023-02-28T05:10:17.141Z,620.72
2023-02-28T05:12:43.845Z,622.40
2023-02-28T05:15:14.639Z,618.95
2023-02-28T05:17:41.350Z,617.05
2023-02-28T05:20:15.602Z,621.90
2023-02-28T05:22:43.239Z,618.72
2023-02-28T05:25:22.560Z,616.63
2023-02-28T05:27:49.333Z,610.08
2023-02-28T05:30:16.650Z,609.50
2023-02-28T05:32:46.248Z,603.90
2023-02-28T05:35:13.558Z,603.50
2023-02-28T05:37:40.575Z,607.55
2023-02-28T05:40:11.208Z,609.00
2023-02-28T05:42:38.796Z,610.15
2023-02-28T05:45:07.869Z,612.88
2023-02-28T05:47:34.942Z,613.87
2023-02-28T05:50:02.101Z,615.47
2023-02-28T05:52:30.941Z,615.63
2023-02-28T05:54:57.732Z,618.28
2023-02-28T05:57:25.016Z,616.40
2023-02-28T05:59:51.850Z,624.42
2023-02-28T06:02:18.982Z,618.90
2023-02-28T06:04:45.909Z,622.15
2023-02-28T06:07:12.775Z,616.88
2023-02-28T06:09:39.551Z,615.80
2023-02-28T06:12:08.167Z,621.17
2023-02-28T06:14:35.488Z,615.28
2023-02-28T06:17:02.895Z,614.30
2023-02-28T06:19:30.903Z,616.70
2023-02-28T06:21:58.205Z,618.00
2023-02-28T06:24:28.824Z,617.37
2023-02-28T06:26:55.739Z,615.85
2023-02-28T06:29:22.408Z,618.03
2023-02-28T06:31:49.632Z,618.05
2023-02-28T06:34:16.411Z,615.65
2023-02-28T06:36:43.327Z,614.63
2023-02-28T06:39:10.865Z,613.28
2023-02-28T06:41:53.539Z,613.40
2023-02-28T06:44:20.581Z,613.25
2023-02-28T06:46:47.846Z,617.45
2023-02-28T06:49:15.318Z,620.05
2023-02-28T06:51:45.915Z,627.50
2023-02-28T06:54:13.368Z,620.65
2023-02-28T06:56:40.477Z,626.33
2023-02-28T06:59:07.304Z,622.85
2023-02-28T07:01:34.140Z,617.75
2023-02-28T07:04:01.399Z,614.58
2023-02-28T07:06:28.720Z,613.83
2023-02-28T07:08:56.003Z,607.93
2023-02-28T07:11:26.392Z,612.47
2023-02-28T07:13:54.950Z,612.50
2023-02-28T07:16:22.702Z,613.03
2023-02-28T07:18:49.734Z,616.28
2023-02-28T07:21:16.885Z,615.60
2023-02-28T07:23:43.579Z,617.85
2023-02-28T07:26:16.296Z,612.50
2023-02-28T07:28:44.034Z,615.08
2023-02-28T07:31:11.278Z,613.58
2023-02-28T07:33:38.152Z,615.70
2023-02-28T07:36:10.524Z,617.78
2023-02-28T07:38:38.372Z,613.70
2023-02-28T07:41:05.309Z,622.07
2023-02-28T07:43:33.351Z,620.38
2023-02-28T07:46:12.644Z,621.92
2023-02-28T07:48:39.507Z,623.03
2023-02-28T07:51:06.179Z,624.83
2023-02-28T07:53:32.851Z,627.60
2023-02-28T07:56:01.758Z,626.38
2023-02-28T07:58:30.775Z,628.63
2023-02-28T08:00:58.105Z,629.70
2023-02-28T08:03:25.731Z,632.20
2023-02-28T08:05:53.590Z,629.20
2023-02-28T08:08:20.263Z,632.58
2023-02-28T08:10:46.925Z,633.13
2023-02-28T08:13:13.562Z,636.83
2023-02-28T08:15:43.771Z,638.03
2023-02-28T08:18:10.462Z,638.80
2023-02-28T08:20:37.073Z,636.83
2023-02-28T08:23:03.695Z,635.90
2023-02-28T08:25:30.385Z,635.17
2023-02-28T08:27:57.030Z,641.72
2023-02-28T08:30:23.798Z,643.33
2023-02-28T08:32:50.530Z,641.47
2023-02-28T08:35:17.203Z,643.33
2023-02-28T08:37:43.915Z,649.15
2023-02-28T08:40:11.281Z,651.80
2023-02-28T08:42:37.875Z,650.42
2023-02-28T08:45:04.959Z,648.58
2023-02-28T08:47:31.614Z,646.75
2023-02-28T08:49:58.269Z,648.50
2023-02-28T08:52:24.899Z,644.70
2023-02-28T08:54:51.539Z,642.75
2023-02-28T08:57:18.211Z,646.05
2023-02-28T08:59:44.881Z,645.45
2023-02-28T09:02:15.039Z,651.72
2023-02-28T09:04:42.558Z,647.63
2023-02-28T09:07:09.169Z,646.57
2023-02-28T09:09:35.850Z,642.80
2023-02-28T09:12:03.011Z,646.45
2023-02-28T09:14:29.675Z,643.47
2023-02-28T09:16:56.329Z,641.83
2023-02-28T09:19:23.418Z,647.95
2023-02-28T09:21:50.069Z,651.33
2023-02-28T09:24:16.670Z,652.45
2023-02-28T09:26:56.365Z,657.25
2023-02-28T09:29:30.568Z,653.90
2023-02-28T09:31:59.764Z,651.20
2023-02-28T09:34:28.052Z,657.83
2023-02-28T09:36:55.975Z,661.63
2023-02-28T09:39:23.847Z,660.10
2023-02-28T09:41:53.057Z,656.60
2023-02-28T09:44:31.847Z,663.97
2023-02-28T09:47:28.535Z,658.53
2023-02-28T09:49:59.652Z,660.13
2023-02-28T09:52:31.468Z,659.72
2023-02-28T09:55:20.520Z,654.10
2023-02-28T09:57:47.543Z,652.83
2023-02-28T10:00:34.864Z,656.67
2023-02-28T10:03:29.922Z,655.22
2023-02-28T10:06:21.102Z,658.13
2023-02-28T10:09:02.706Z,655.55
2023-02-28T10:11:33.296Z,657.10
2023-02-28T10:14:17.632Z,654.50
2023-02-28T10:16:52.909Z,660.85
2023-02-28T10:19:34.095Z,659.80
2023-02-28T10:22:13.015Z,658.08
2023-02-28T10:24:52.445Z,657.90
2023-02-28T10:27:24.685Z,654.08
2023-02-28T10:29:52.796Z,652.20
2023-02-28T10:32:29.069Z,652.75
2023-02-28T10:35:20.637Z,648.00
2023-02-28T10:37:56.305Z,654.75
2023-02-28T10:40:22.897Z,647.65
2023-02-28T10:43:20.511Z,660.63
2023-02-28T10:45:57.544Z,653.40
2023-02-28T10:48:44.993Z,649.92
2023-02-28T10:51:13.649Z,655.58
2023-02-28T10:54:01.230Z,649.20
2023-02-28T10:56:29.032Z,646.65
2023-02-28T10:59:03.520Z,643.95
2023-02-28T11:01:33.466Z,650.88
2023-02-28T11:04:00.384Z,649.00
2023-02-28T11:06:32.051Z,652.88
2023-02-28T11:09:01.770Z,651.38
2023-02-28T11:11:32.501Z,652.97
2023-02-28T11:14:06.044Z,655.50
2023-02-28T11:16:38.405Z,661.50
2023-02-28T11:19:16.927Z,658.60
2023-02-28T11:22:15.065Z,662.28
2023-02-28T11:24:45.357Z,667.88
2023-02-28T11:27:30.861Z,665.15
2023-02-28T11:29:58.622Z,667.53
2023-02-28T11:32:30.111Z,674.60
2023-02-28T11:35:12.144Z,672.53
2023-02-28T11:37:39.736Z,670.92
2023-02-28T11:40:14.881Z,670.00
2023-02-28T11:43:04.778Z,669.72
2023-02-28T11:45:50.501Z,669.13
2023-02-28T11:48:40.691Z,669.17
2023-02-28T11:51:21.489Z,671.13
2023-02-28T11:54:02.994Z,666.70
2023-02-28T11:56:40.199Z,668.90
2023-02-28T11:59:29.589Z,669.10
2023-02-28T12:02:23.546Z,669.90
2023-02-28T12:05:09.142Z,677.25
2023-02-28T12:07:59.988Z,675.83
2023-02-28T12:10:33.136Z,672.42
2023-02-28T12:13:05.043Z,673.05
2023-02-28T12:15:53.257Z,673.97
2023-02-28T12:18:58.314Z,673.28
2023-02-28T12:22:03.800Z,669.63
2023-02-28T12:24:54.791Z,664.83
2023-02-28T12:27:26.532Z,663.93
2023-02-28T12:30:14.611Z,669.17
2023-02-28T12:32:49.982Z,661.75
2023-02-28T12:35:22.715Z,657.75
2023-02-28T12:38:06.397Z,653.63
2023-02-28T12:41:00.523Z,657.60
2023-02-28T12:43:39.466Z,653.78
2023-02-28T12:46:15.658Z,661.75
2023-02-28T12:48:49.475Z,660.63
2023-02-28T12:51:17.971Z,659.45
2023-02-28T12:54:16.995Z,660.10
2023-02-28T12:56:51.041Z,655.67
2023-02-28T12:59:32.708Z,660.67
2023-02-28T13:02:10.227Z,658.97
2023-02-28T13:04:55.632Z,656.83
2023-02-28T13:07:37.349Z,658.72
2023-02-28T13:10:08.403Z,655.55
2023-02-28T13:12:36.036Z,659.55
2023-02-28T13:15:13.209Z,662.05
2023-02-28T13:17:42.287Z,656.88
2023-02-28T13:20:40.866Z,651.78
2023-02-28T13:23:39.169Z,650.75
2023-02-28T13:26:05.825Z,648.05
2023-02-28T13:29:02.777Z,649.88
2023-02-28T13:31:29.814Z,651.07
2023-02-28T13:34:00.332Z,650.70
2023-02-28T13:36:27.068Z,660.23
2023-02-28T13:39:23.655Z,652.45
2023-02-28T13:41:50.504Z,643.67
2023-02-28T13:44:27.428Z,648.47
2023-02-28T13:46:56.863Z,646.00
2023-02-28T13:49:23.812Z,648.03
2023-02-28T13:51:52.991Z,651.03
2023-02-28T13:54:41.214Z,652.28
2023-02-28T13:57:25.294Z,651.92
2023-02-28T14:00:07.415Z,659.17
2023-02-28T14:02:40.236Z,656.70
2023-02-28T14:05:13.160Z,652.08
2023-02-28T14:07:46.770Z,651.47
2023-02-28T14:10:23.279Z,653.65
2023-02-28T14:12:55.705Z,656.33
2023-02-28T14:15:34.302Z,655.88
2023-02-28T14:18:04.244Z,655.83
2023-02-28T14:20:34.523Z,656.22
2023-02-28T14:23:26.021Z,656.67
2023-02-28T14:26:13.619Z,655.25
2023-02-28T14:28:56.884Z,660.42
2023-02-28T14:31:35.709Z,656.88
2023-02-28T14:34:14.812Z,658.33
2023-02-28T14:36:43.112Z,658.33
2023-02-28T14:39:17.353Z,648.75
2023-02-28T14:41:46.808Z,652.57
2023-02-28T14:44:24.835Z,653.13
2023-02-28T14:47:07.208Z,651.40
2023-02-28T14:49:38.618Z,654.15
2023-02-28T14:52:13.983Z,652.92
2023-02-28T14:54:41.162Z,659.17
2023-02-28T14:57:21.145Z,667.83
2023-02-28T14:59:47.783Z,682.27
2023-02-28T15:02:25.864Z,691.97
2023-02-28T15:04:58.104Z,697.97
2023-02-28T15:07:31.388Z,696.70
2023-02-28T15:10:22.740Z,696.00
2023-02-28T15:13:02.739Z,720.27
2023-02-28T15:16:05.627Z,731.80
2023-02-28T15:18:32.525Z,729.58
2023-02-28T15:21:07.890Z,721.72
2023-02-28T15:23:37.198Z,719.05
2023-02-28T15:26:05.077Z,719.80
2023-02-28T15:28:31.983Z,714.42
2023-02-28T15:31:02.522Z,707.55
2023-02-28T15:33:32.092Z,706.07
2023-02-28T15:36:34.130Z,704.17
2023-02-28T15:39:15.452Z,706.60
2023-02-28T15:41:42.656Z,703.22
2023-02-28T15:44:27.767Z,703.60
2023-02-28T15:47:06.521Z,712.00
2023-02-28T15:49:54.169Z,720.45
2023-02-28T15:52:41.688Z,723.00
2023-02-28T15:55:29.208Z,722.88
2023-02-28T15:58:01.096Z,727.38
2023-02-28T16:00:30.153Z,737.53
2023-02-28T16:02:56.809Z,729.00
2023-02-28T16:05:33.769Z,737.78
2023-02-28T16:08:07.794Z,745.30
2023-02-28T16:10:34.413Z,748.50
2023-02-28T16:13:03.195Z,749.60
2023-02-28T16:15:36.003Z,745.78
2023-02-28T16:18:02.636Z,730.10
2023-02-28T16:20:31.575Z,732.03
2023-02-28T16:23:02.202Z,722.25
2023-02-28T16:25:36.095Z,718.60
2023-02-28T16:28:03.562Z,719.28
2023-02-28T16:30:33.952Z,701.83
2023-02-28T16:33:00.989Z,696.95
2023-02-28T16:35:27.657Z,698.88
2023-02-28T16:37:54.942Z,690.60
2023-02-28T16:40:24.440Z,689.38
2023-02-28T16:42:54.382Z,709.42
2023-02-28T16:45:29.110Z,698.03
2023-02-28T16:47:56.893Z,689.25
2023-02-28T16:50:26.389Z,692.33
2023-02-28T16:52:53.225Z,689.97
2023-02-28T16:55:20.057Z,696.00
2023-02-28T16:57:52.703Z,695.75
2023-02-28T17:00:19.825Z,688.45
2023-02-28T17:02:46.829Z,690.50
2023-02-28T17:05:15.846Z,684.20
2023-02-28T17:07:43.347Z,682.47
2023-02-28T17:10:19.557Z,679.93
2023-02-28T17:12:46.230Z,682.67
2023-02-28T17:15:14.641Z,681.38
2023-02-28T17:17:42.308Z,680.15
2023-02-28T17:20:17.141Z,681.22
2023-02-28T17:22:43.767Z,680.58
2023-02-28T17:25:12.013Z,678.80
2023-02-28T17:27:38.886Z,677.60
2023-02-28T17:30:16.944Z,678.45
2023-02-28T17:32:43.648Z,683.72
2023-02-28T17:35:11.191Z,673.33
2023-02-28T17:37:37.853Z,674.38
2023-02-28T17:40:05.507Z,675.78
2023-02-28T17:42:32.495Z,676.40
2023-02-28T17:44:59.161Z,674.35
2023-02-28T17:47:25.906Z,676.08
2023-02-28T17:49:52.516Z,674.00
2023-02-28T17:52:19.164Z,670.30
2023-02-28T17:54:46.091Z,675.40
2023-02-28T17:57:16.672Z,667.67
2023-02-28T17:59:44.005Z,667.28
2023-02-28T18:02:13.610Z,667.47
2023-02-28T18:04:40.596Z,668.58
2023-02-28T18:07:10.068Z,668.37
2023-02-28T18:09:36.742Z,662.72
2023-02-28T18:12:03.415Z,666.83
2023-02-28T18:14:29.998Z,671.95
2023-02-28T18:16:57.523Z,673.33
2023-02-28T18:19:24.584Z,670.88
2023-02-28T18:21:53.286Z,673.20
2023-02-28T18:24:21.469Z,681.50
2023-02-28T18:26:48.154Z,671.03
2023-02-28T18:29:21.947Z,665.75
2023-02-28T18:31:49.200Z,665.95
2023-02-28T18:34:16.085Z,666.38
2023-02-28T18:36:43.304Z,665.10
2023-02-28T18:39:12.039Z,669.13
2023-02-28T18:41:39.584Z,665.83
2023-02-28T18:44:18.758Z,661.15
2023-02-28T18:46:46.521Z,686.28
2023-02-28T18:49:13.260Z,676.60
2023-02-28T18:51:40.325Z,659.33
2023-02-28T18:54:07.218Z,664.78
2023-02-28T18:56:33.783Z,663.53
2023-02-28T18:59:00.372Z,662.58
2023-02-28T19:01:31.109Z,668.72
2023-02-28T19:04:01.031Z,667.70
2023-02-28T19:06:29.657Z,665.75
2023-02-28T19:09:01.906Z,677.75
2023-02-28T19:11:31.092Z,678.42
2023-02-28T19:13:58.318Z,677.50
2023-02-28T19:16:25.223Z,673.60
2023-02-28T19:18:51.914Z,675.13
2023-02-28T19:21:20.502Z,676.25
2023-02-28T19:23:47.246Z,678.37
2023-02-28T19:26:19.886Z,682.80
2023-02-28T19:28:46.656Z,677.90
2023-02-28T19:31:19.323Z,680.92
2023-02-28T19:33:46.657Z,686.60
2023-02-28T19:36:15.174Z,682.92
2023-02-28T19:38:44.513Z,688.25
2023-02-28T19:41:12.851Z,686.45
2023-02-28T19:43:40.182Z,690.05
2023-02-28T19:46:07.610Z,686.10
2023-02-28T19:48:34.287Z,684.38
2023-02-28T19:51:04.051Z,679.78
2023-02-28T19:53:32.229Z,680.70
2023-02-28T19:56:00.390Z,680.67
2023-02-28T19:58:27.897Z,677.15
2023-02-28T20:00:54.649Z,672.38
2023-02-28T20:03:21.904Z,677.58
2023-02-28T20:05:59.574Z,676.50
2023-02-28T20:08:26.879Z,680.88
2023-02-28T20:10:54.024Z,676.88
2023-02-28T20:13:25.781Z,673.80
2023-02-28T20:15:52.435Z,677.00
2023-02-28T20:18:19.135Z,672.42
2023-02-28T20:20:45.815Z,668.38
2023-02-28T20:23:12.426Z,669.47
2023-02-28T20:25:40.599Z,669.17
2023-02-28T20:28:07.263Z,666.95
2023-02-28T20:30:34.169Z,668.28
2023-02-28T20:33:01.052Z,669.53
2023-02-28T20:35:27.798Z,671.95
2023-02-28T20:37:54.434Z,662.53
2023-02-28T20:40:21.257Z,657.78
2023-02-28T20:42:47.892Z,656.30
2023-02-28T20:45:14.864Z,650.40
2023-02-28T20:47:43.465Z,651.65
2023-02-28T20:50:11.342Z,649.35
2023-02-28T20:52:38.045Z,641.15
2023-02-28T20:55:05.315Z,644.17
2023-02-28T20:57:32.047Z,641.72
2023-02-28T20:59:58.740Z,646.70
2023-02-28T21:02:26.409Z,644.83
2023-02-28T21:04:53.087Z,644.55
2023-02-28T21:07:19.782Z,641.65
2023-02-28T21:09:46.397Z,648.17
2023-02-28T21:12:13.004Z,646.60
2023-02-28T21:14:39.696Z,647.03
2023-02-28T21:17:08.989Z,646.20
2023-02-28T21:19:35.811Z,647.78
2023-02-28T21:22:02.446Z,641.83
2023-02-28T21:24:29.029Z,642.45
2023-02-28T21:26:57.504Z,640.67
2023-02-28T21:29:24.148Z,645.00
2023-02-28T21:31:54.646Z,640.90
2023-02-28T21:34:21.345Z,640.33
2023-02-28T21:36:48.124Z,645.03
2023-02-28T21:39:18.264Z,642.33
2023-02-28T21:41:45.203Z,641.60
2023-02-28T21:44:18.230Z,653.20
2023-02-28T21:46:47.368Z,655.83
2023-02-28T21:49:15.077Z,654.63
2023-02-28T21:51:42.716Z,648.63
2023-02-28T21:54:10.873Z,649.23
2023-02-28T21:56:37.710Z,647.90
2023-02-28T21:59:04.649Z,654.00
2023-02-28T22:01:34.787Z,654.40
2023-02-28T22:04:02.576Z,651.97
2023-02-28T22:06:31.786Z,654.97
2023-02-28T22:09:01.915Z,649.50
2023-02-28T22:11:29.068Z,651.03
2023-02-28T22:13:57.850Z,649.58
2023-02-28T22:16:28.147Z,647.58
2023-02-28T22:18:56.374Z,651.05
2023-02-28T22:21:23.442Z,642.08
2023-02-28T22:23:50.430Z,645.38
2023-02-28T22:26:19.965Z,644.10
2023-02-28T22:28:47.036Z,644.33
2023-02-28T22:31:28.052Z,645.38
2023-02-28T22:33:57.480Z,644.75
2023-02-28T22:36:24.700Z,646.92
2023-02-28T22:38:52.945Z,646.10
2023-02-28T22:41:22.109Z,643.50
2023-02-28T22:43:54.565Z,640.72
2023-02-28T22:46:22.614Z,642.65
2023-02-28T22:48:49.943Z,641.10
2023-02-28T22:51:20.022Z,641.88
2023-02-28T22:53:48.684Z,640.45
2023-02-28T22:56:17.319Z,641.97
2023-02-28T22:58:48.044Z,642.65
2023-02-28T23:01:16.696Z,644.15
2023-02-28T23:03:44.060Z,640.72
2023-02-28T23:06:18.068Z,642.38
2023-02-28T23:08:44.757Z,645.58
2023-02-28T23:11:17.874Z,637.05
2023-02-28T23:13:58.154Z,638.42
2023-02-28T23:16:38.498Z,639.30
2023-02-28T23:19:10.806Z,637.47
2023-02-28T23:21:38.277Z,637.10
2023-02-28T23:24:10.408Z,631.63
2023-02-28T23:26:39.442Z,636.55
2023-02-28T23:29:06.657Z,638.17
2023-02-28T23:31:33.942Z,643.58
2023-02-28T23:34:00.773Z,639.28
2023-02-28T23:36:27.897Z,639.63
2023-02-28T23:38:54.828Z,636.90
2023-02-28T23:41:22.817Z,635.80
2023-02-28T23:43:50.989Z,630.67
2023-02-28T23:46:19.390Z,632.40
2023-02-28T23:48:46.184Z,632.55
2023-02-28T23:51:16.778Z,637.20
2023-02-28T23:53:46.144Z,638.55
2023-02-28T23:56:14.981Z,642.45
2023-02-28T23:58:42.840Z,638.17
